Weather History for KETC - March, 2014

Change the Weather History Date:

Thursday, March 6, 2014

  Actual Average Record
Temperature  
Mean Temperature 36 °F -  
Max Temperature 42 °F 63 °F 85 °F (1955)
Min Temperature 31 °F 37 °F 15 °F (1960)
Degree Days  
Heating Degree Days 28    
Moisture  
Dew Point 27 °F    
Average Humidity 73    
Maximum Humidity 93    
Minimum Humidity 58    
Precipitation  
Precipitation 0.35 in - - ()
Sea Level Pressure  
Sea Level Pressure 30.31 in    
Wind  
Wind Speed 8 mph (NNE)    
Max Wind Speed 22 mph    
Max Gust Speed 28 mph    
Visibility 9 miles    
Events Rain    
Averages and records for this station are not official NWS values.
T = Trace of Precipitation, MM = Missing Value Source: NWS Daily Summary

Daily Weather History Graph

Daily Weather History Graph

Search for Another Location

Airport or City:

Trip Planner

Search our weather history database for the weather conditions in past years. The results will help you decide how hot, cold, wet, or windy it might be!

Date:

Astronomy

Mar. 06, 2014 Rise Set
Actual Time 6:33 AM EST 6:09 PM EST
Civil Twilight 6:08 AM EST 6:35 PM EST
Nautical Twilight 5:38 AM EST 7:05 PM EST
Astronomical Twilight 5:08 AM EST 7:34 PM EST
Moon 9:50 AM EST (3/6) No Moon Set
Length of Visible Light 12h 27m
Length of Day
11h 36m
Waxing Crescent, 32% of the Moon is Illuminated
Mar 6
Waxing Crescent
Mar 8
First Quarter
Mar 16
Full
Mar 23
Last Quarter
Mar 30
New

Hourly Weather History & Observations

Time (EST) Temp. Windchill Dew Point Humidity Pressure Visibility Wind Dir Wind Speed Gust Speed Precip Events Conditions
12:15 AM 32.0 °F - 21.6 °F 65% 30.31 in 10.0 mi Calm Calm - N/A   Clear
12:35 AM 32.0 °F - 20.5 °F 63% 30.32 in 10.0 mi Calm Calm - N/A   Clear
12:55 AM 31.8 °F 28.5 °F 21.0 °F 64% 30.32 in 10.0 mi North 3.5 mph - N/A   Clear
1:15 AM 31.6 °F 27.0 °F 20.3 °F 63% 30.32 in 10.0 mi North 4.6 mph - N/A   Clear
1:35 AM 31.8 °F 26.2 °F 19.6 °F 61% 30.31 in 10.0 mi NNE 5.8 mph - N/A   Clear
1:55 AM 32.0 °F 28.7 °F 19.0 °F 59% 30.32 in 10.0 mi NNE 3.5 mph - N/A   Clear
2:15 AM 31.8 °F 27.3 °F 18.7 °F 58% 30.31 in 10.0 mi North 4.6 mph - N/A   Clear
2:35 AM 31.8 °F 26.2 °F 18.9 °F 59% 30.31 in 10.0 mi NNE 5.8 mph - N/A   Clear
2:55 AM 32.0 °F 24.8 °F 18.5 °F 58% 30.31 in 10.0 mi NNE 8.1 mph - N/A   Clear
3:15 AM 32.0 °F 26.4 °F 18.9 °F 58% 30.30 in 10.0 mi NNE 5.8 mph - N/A   Clear
3:35 AM 32.0 °F 26.4 °F 19.4 °F 60% 30.30 in 10.0 mi NNE 5.8 mph - N/A   Clear
3:55 AM 31.8 °F 26.2 °F 19.8 °F 61% 30.31 in 10.0 mi NNE 5.8 mph - N/A   Clear
4:15 AM 31.8 °F 25.4 °F 20.5 °F 63% 30.30 in 10.0 mi North 6.9 mph - N/A   Clear
4:35 AM 31.6 °F 26.0 °F 21.2 °F 65% 30.32 in 10.0 mi NNE 5.8 mph - N/A   Clear
4:55 AM 31.8 °F 26.2 °F 21.7 °F 66% 30.33 in 10.0 mi NNE 5.8 mph - N/A   Clear
5:15 AM 31.8 °F 27.3 °F 22.5 °F 68% 30.35 in 10.0 mi North 4.6 mph - N/A   Clear
5:35 AM 31.6 °F 26.0 °F 22.8 °F 70% 30.36 in 10.0 mi North 5.8 mph - N/A   Clear
5:55 AM 31.5 °F 26.8 °F 23.0 °F 71% 30.35 in 10.0 mi North 4.6 mph - N/A   Clear
6:15 AM 31.3 °F 24.7 °F 23.4 °F 72% 30.36 in 10.0 mi North 6.9 mph - N/A   Clear
6:35 AM 31.5 °F 24.2 °F 23.7 °F 73% 30.35 in 10.0 mi NNE 8.1 mph - N/A   Clear
6:55 AM 31.6 °F 23.7 °F 23.7 °F 73% 30.36 in 10.0 mi NNE 9.2 mph - N/A   Clear
7:15 AM 32.0 °F 24.8 °F 23.9 °F 72% 30.37 in 10.0 mi North 8.1 mph - N/A   Clear
7:35 AM 32.5 °F 23.2 °F 24.1 °F 71% 30.37 in 10.0 mi NNE 12.7 mph - N/A   Clear
7:55 AM 34.2 °F 26.8 °F 24.4 °F 68% 30.39 in 10.0 mi NNE 9.2 mph 16.1 mph N/A   Clear
8:15 AM 35.6 °F 26.6 °F 24.8 °F 65% 30.39 in 10.0 mi NNE 13.8 mph 21.9 mph N/A   Clear
8:35 AM 36.7 °F 28.9 °F 25.2 °F 63% 30.40 in 10.0 mi NE 11.5 mph 24.2 mph N/A   Clear
8:55 AM 37.6 °F 29.6 °F 25.5 °F 62% 30.39 in 10.0 mi NNE 12.7 mph 20.7 mph N/A   Clear
9:15 AM 38.3 °F 27.8 °F 25.9 °F 61% 30.38 in 10.0 mi NE 21.9 mph 26.5 mph N/A   Clear
9:35 AM 39.4 °F 30.7 °F 27.0 °F 61% 30.38 in 10.0 mi NNE 16.1 mph 23.0 mph N/A   Clear
9:55 AM 40.6 °F 32.0 °F 27.7 °F 60% 30.38 in 10.0 mi North 17.3 mph 21.9 mph N/A   Scattered Clouds
10:15 AM 40.6 °F 34.8 °F 27.9 °F 60% 30.39 in 10.0 mi NNE 9.2 mph 21.9 mph N/A   Mostly Cloudy
10:35 AM 40.6 °F 33.4 °F 28.4 °F 62% 30.39 in 10.0 mi NNE 12.7 mph 23.0 mph N/A   Overcast
10:55 AM 40.8 °F 33.3 °F 28.4 °F 61% 30.38 in 10.0 mi NE 13.8 mph 19.6 mph N/A   Overcast
11:15 AM 41.0 °F 32.8 °F 28.9 °F 62% 30.37 in 10.0 mi NNE 16.1 mph 24.2 mph N/A   Overcast
11:35 AM 41.5 °F 32.9 °F 29.7 °F 63% 30.35 in 10.0 mi North 18.4 mph 23.0 mph N/A   Overcast
11:55 AM 41.7 °F 34.1 °F 29.7 °F 62% 30.35 in 10.0 mi NE 15.0 mph 23.0 mph N/A   Mostly Cloudy
12:15 PM 42.1 °F 34.9 °F 30.0 °F 62% 30.36 in 10.0 mi NNE 13.8 mph 18.4 mph N/A   Overcast
12:30 PM 42.1 °F 35.2 °F 30.2 °F 63% 30.35 in 10.0 mi NE 12.7 mph 23.0 mph N/A   Overcast
12:55 PM 41.5 °F 34.2 °F 30.0 °F 64% 30.35 in 10.0 mi NNE 13.8 mph 23.0 mph N/A   Overcast
1:15 PM 41.2 °F 33.4 °F 30.0 °F 65% 30.34 in 10.0 mi NNE 15.0 mph 19.6 mph N/A   Overcast
1:35 PM 41.2 °F 33.7 °F 30.2 °F 65% 30.34 in 10.0 mi NE 13.8 mph 18.4 mph N/A   Overcast
1:55 PM 40.6 °F 33.4 °F 30.2 °F 66% 30.34 in 10.0 mi NE 12.7 mph 19.6 mph N/A   Overcast
2:15 PM 40.5 °F 32.5 °F 30.2 °F 67% 30.32 in 10.0 mi NNE 15.0 mph 19.6 mph N/A   Overcast
2:35 PM 40.1 °F 32.4 °F 30.2 °F 68% 30.30 in 10.0 mi NE 13.8 mph 26.5 mph N/A   Overcast
2:55 PM 39.9 °F 31.8 °F 30.4 °F 69% 30.29 in 10.0 mi NE 15.0 mph 21.9 mph N/A   Overcast
3:15 PM 39.4 °F 29.8 °F 30.4 °F 70% 30.29 in 10.0 mi NE 19.6 mph 27.6 mph N/A   Overcast
3:35 PM 38.5 °F 29.2 °F 30.4 °F 73% 30.29 in 10.0 mi NNE 17.3 mph 24.2 mph N/A   Overcast
3:55 PM 38.1 °F 30.2 °F 30.2 °F 73% 30.29 in 10.0 mi NE 12.7 mph 25.3 mph N/A   Overcast
4:15 PM 37.4 °F 30.8 °F 31.1 °F 78% 30.29 in 7.0 mi NNE 9.2 mph 23.0 mph N/A   Light Drizzle
4:35 PM 36.7 °F 28.0 °F 31.8 °F 83% 30.29 in 7.0 mi NNE 13.8 mph 24.2 mph N/A Rain Light Rain
4:55 PM 36.1 °F 27.7 °F 32.0 °F 85% 30.29 in 5.0 mi NNE 12.7 mph 18.4 mph N/A Rain Light Rain
5:10 PM 35.8 °F 30.1 °F 32.0 °F 86% 30.29 in 4.0 mi NNE 6.9 mph 16.1 mph 0.02 in Rain Rain
5:35 PM 35.1 °F 27.9 °F 32.0 °F 89% 30.30 in 4.0 mi NNE 9.2 mph - 0.04 in Rain Light Rain
5:55 PM 34.7 °F 25.9 °F 32.0 °F 90% 30.29 in 4.0 mi NNE 12.7 mph - 0.06 in Rain Light Rain
6:15 PM 34.3 °F 25.5 °F 32.0 °F 91% 30.28 in 7.0 mi NNE 12.7 mph 18.4 mph N/A Rain Light Rain
6:35 PM 34.2 °F 26.2 °F 31.8 °F 91% 30.28 in 7.0 mi NNE 10.4 mph 18.4 mph 0.01 in Rain Light Rain
6:55 PM 34.0 °F 24.6 °F 31.8 °F 92% 30.27 in 7.0 mi NNE 13.8 mph 19.6 mph 0.02 in Rain Light Rain
7:15 PM 33.8 °F 24.3 °F 31.8 °F 92% 30.25 in 7.0 mi NNE 13.8 mph 21.9 mph 0.01 in Rain Light Rain
7:35 PM 33.8 °F 24.8 °F 31.8 °F 92% 30.24 in 7.0 mi NNE 12.7 mph 20.7 mph 0.02 in Rain Light Rain
7:55 PM 33.8 °F 23.2 °F 31.8 °F 92% 30.24 in 7.0 mi NNE 17.3 mph 27.6 mph 0.03 in Rain Light Rain
8:15 PM 33.8 °F 24.8 °F 31.8 °F 92% 30.24 in 7.0 mi NNE 12.7 mph 24.2 mph 0.01 in Rain Light Rain
8:35 PM 33.8 °F 25.8 °F 32.0 °F 93% 30.25 in 7.0 mi NNE 10.4 mph 21.9 mph 0.02 in Rain Light Rain
8:55 PM 33.8 °F 24.3 °F 32.0 °F 93% 30.24 in 5.0 mi NNE 13.8 mph - 0.04 in Rain Rain
9:15 PM 33.8 °F 24.3 °F 32.0 °F 93% 30.24 in 7.0 mi NNE 13.8 mph 17.3 mph 0.01 in Rain Light Rain
9:35 PM 33.8 °F 24.8 °F 32.0 °F 93% 30.23 in 7.0 mi NNE 12.7 mph 20.7 mph 0.02 in Rain Light Rain
9:55 PM 34.0 °F 24.2 °F 32.0 °F 92% 30.22 in 7.0 mi NNE 15.0 mph 19.6 mph 0.04 in Rain Rain
10:15 PM 34.2 °F 25.7 °F 32.2 °F 92% 30.21 in 7.0 mi NNE 11.5 mph 24.2 mph 0.02 in Rain Rain
10:35 PM 34.3 °F 24.6 °F 32.4 °F 92% 30.19 in 7.0 mi NNE 15.0 mph 21.9 mph 0.04 in Rain Rain
10:55 PM 34.5 °F 24.8 °F 32.5 °F 92% 30.19 in 5.0 mi NNE 15.0 mph 23.0 mph 0.07 in Rain Rain
11:15 PM 34.9 °F 25.7 °F 32.9 °F 92% 30.18 in 7.0 mi NNE 13.8 mph 21.9 mph 0.03 in Rain Rain
11:35 PM 34.9 °F 25.3 °F 32.9 °F 92% 30.16 in 5.0 mi NNE 15.0 mph 18.4 mph 0.06 in Rain Rain
11:55 PM 34.9 °F 25.3 °F 32.9 °F 92% 30.15 in 5.0 mi NNE 15.0 mph 19.6 mph 0.09 in Rain Rain